sensor_id;sensor_type;location;lat;lon;timestamp;temperature;humidity
16136;DHT22;8173;48.354;9.248;2023-03-01T00:00:44;-3.80;99.90
16136;DHT22;8173;48.354;9.248;2023-03-01T00:03:12;-3.80;99.90
16136;DHT22;8173;48.354;9.248;2023-03-01T00:05:43;-3.70;99.90
16136;DHT22;8173;48.354;9.248;2023-03-01T00:08:11;-3.70;99.90
16136;DHT22;8173;48.354;9.248;2023-03-01T00:10:39;-3.80;99.90
16136;DHT22;8173;48.354;9.248;2023-03-01T00:13:05;-3.70;99.90
16136;DHT22;8173;48.354;9.248;2023-03-01T00:15:32;-3.60;99.90
16136;DHT22;8173;48.354;9.248;2023-03-01T00:18:00;-3.60;99.90
16136;DHT22;8173;48.354;9.248;2023-03-01T00:20:27;-3.60;99.90
16136;DHT22;8173;48.354;9.248;2023-03-01T00:22:53;-3.50;99.90
16136;DHT22;8173;48.354;9.248;2023-03-01T00:25:20;-3.20;99.90
16136;DHT22;8173;48.354;9.248;2023-03-01T00:27:48;-3.40;99.90
16136;DHT22;8173;48.354;9.248;2023-03-01T00:30:15;-3.40;99.90
16136;DHT22;8173;48.354;9.248;2023-03-01T00:32:42;-3.40;99.90
16136;DHT22;8173;48.354;9.248;2023-03-01T00:35:09;-3.30;99.90
16136;DHT22;8173;48.354;9.248;2023-03-01T00:37:35;-3.30;99.90
16136;DHT22;8173;48.354;9.248;2023-03-01T00:40:04;-3.30;99.90
16136;DHT22;8173;48.354;9.248;2023-03-01T00:42:31;-3.30;99.90
16136;DHT22;8173;48.354;9.248;2023-03-01T00:44:59;-3.30;99.90
16136;DHT22;8173;48.354;9.248;2023-03-01T00:47:28;-3.30;99.90
16136;DHT22;8173;48.354;9.248;2023-03-01T00:49:55;-3.30;99.90
16136;DHT22;8173;48.354;9.248;2023-03-01T00:52:22;-3.30;99.90
16136;DHT22;8173;48.354;9.248;2023-03-01T00:54:52;-3.30;99.90
16136;DHT22;8173;48.354;9.248;2023-03-01T00:57:18;-3.20;99.90
16136;DHT22;8173;48.354;9.248;2023-03-01T00:59:45;-3.20;99.90
16136;DHT22;8173;48.354;9.248;2023-03-01T01:02:13;-3.20;99.90
16136;DHT22;8173;48.354;9.248;2023-03-01T01:04:40;-3.20;99.90
16136;DHT22;8173;48.354;9.248;2023-03-01T01:07:07;-3.20;99.90
16136;DHT22;8173;48.354;9.248;2023-03-01T01:09:33;-3.20;99.90
16136;DHT22;8173;48.354;9.248;2023-03-01T01:12:01;-3.20;99.90
16136;DHT22;8173;48.354;9.248;2023-03-01T01:14:28;-3.10;99.90
16136;DHT22;8173;48.354;9.248;2023-03-01T01:16:55;-3.10;99.90
16136;DHT22;8173;48.354;9.248;2023-03-01T01:19:23;-3.10;99.90
16136;DHT22;8173;48.354;9.248;2023-03-01T01:21:50;-3.20;99.90
16136;DHT22;8173;48.354;9.248;2023-03-01T01:24:18;-3.20;99.90
16136;DHT22;8173;48.354;9.248;2023-03-01T01:26:45;-3.20;99.90
16136;DHT22;8173;48.354;9.248;2023-03-01T01:29:12;-3.20;99.90
16136;DHT22;8173;48.354;9.248;2023-03-01T01:31:41;-3.20;99.90
16136;DHT22;8173;48.354;9.248;2023-03-01T01:34:13;-3.10;99.90
16136;DHT22;8173;48.354;9.248;2023-03-01T01:36:42;-3.10;99.90
16136;DHT22;8173;48.354;9.248;2023-03-01T01:39:09;-3.10;99.90
16136;DHT22;8173;48.354;9.248;2023-03-01T01:41:39;-3.10;99.90
16136;DHT22;8173;48.354;9.248;2023-03-01T01:44:15;-3.00;99.90
16136;DHT22;8173;48.354;9.248;2023-03-01T01:46:45;-3.00;99.90
16136;DHT22;8173;48.354;9.248;2023-03-01T01:49:24;-2.90;99.90
16136;DHT22;8173;48.354;9.248;2023-03-01T01:52:08;-2.90;99.90
16136;DHT22;8173;48.354;9.248;2023-03-01T01:54:41;-2.80;99.90
16136;DHT22;8173;48.354;9.248;2023-03-01T01:57:12;-2.70;99.90
16136;DHT22;8173;48.354;9.248;2023-03-01T01:59:40;-2.70;99.90
16136;DHT22;8173;48.354;9.248;2023-03-01T02:02:08;-2.70;99.90
16136;DHT22;8173;48.354;9.248;2023-03-01T02:04:35;-2.70;99.90
16136;DHT22;8173;48.354;9.248;2023-03-01T02:07:07;-2.60;99.90
16136;DHT22;8173;48.354;9.248;2023-03-01T02:09:35;-2.60;99.90
16136;DHT22;8173;48.354;9.248;2023-03-01T02:12:03;-2.50;99.90
16136;DHT22;8173;48.354;9.248;2023-03-01T02:14:30;-2.50;99.90
16136;DHT22;8173;48.354;9.248;2023-03-01T02:16:57;-2.50;99.90
16136;DHT22;8173;48.354;9.248;2023-03-01T02:19:39;-2.40;99.90
16136;DHT22;8173;48.354;9.248;2023-03-01T02:22:15;-2.40;99.90
16136;DHT22;8173;48.354;9.248;2023-03-01T02:24:54;-2.40;99.90
16136;DHT22;8173;48.354;9.248;2023-03-01T02:27:30;-2.30;99.90
16136;DHT22;8173;48.354;9.248;2023-03-01T02:30:01;-2.30;99.90
16136;DHT22;8173;48.354;9.248;2023-03-01T02:32:28;-2.30;99.90
16136;DHT22;8173;48.354;9.248;2023-03-01T02:34:55;-2.30;99.90
16136;DHT22;8173;48.354;9.248;2023-03-01T02:37:23;-2.30;99.90
16136;DHT22;8173;48.354;9.248;2023-03-01T02:39:56;-2.30;99.90
16136;DHT22;8173;48.354;9.248;2023-03-01T02:42:28;-2.30;99.90
16136;DHT22;8173;48.354;9.248;2023-03-01T02:44:57;-2.30;99.90
16136;DHT22;8173;48.354;9.248;2023-03-01T02:47:25;-2.30;99.90
16136;DHT22;8173;48.354;9.248;2023-03-01T02:49:51;-2.30;99.90
16136;DHT22;8173;48.354;9.248;2023-03-01T02:52:34;-2.30;99.90
16136;DHT22;8173;48.354;9.248;2023-03-01T02:55:09;-2.30;99.90
16136;DHT22;8173;48.354;9.248;2023-03-01T02:57:38;-2.30;99.90
16136;DHT22;8173;48.354;9.248;2023-03-01T03:00:08;-2.30;99.90
16136;DHT22;8173;48.354;9.248;2023-03-01T03:02:37;-2.30;99.90
16136;DHT22;8173;48.354;9.248;2023-03-01T03:05:06;-2.30;99.90
16136;DHT22;8173;48.354;9.248;2023-03-01T03:07:35;-2.30;99.90
16136;DHT22;8173;48.354;9.248;2023-03-01T03:10:03;-2.30;99.90
16136;DHT22;8173;48.354;9.248;2023-03-01T03:12:31;-2.30;99.90
16136;DHT22;8173;48.354;9.248;2023-03-01T03:14:57;-2.30;99.90
16136;DHT22;8173;48.354;9.248;2023-03-01T03:17:24;-2.30;99.90
16136;DHT22;8173;48.354;9.248;2023-03-01T03:19:52;-2.30;99.90
16136;DHT22;8173;48.354;9.248;2023-03-01T03:22:19;-2.30;99.90
16136;DHT22;8173;48.354;9.248;2023-03-01T03:24:46;-2.30;99.90
16136;DHT22;8173;48.354;9.248;2023-03-01T03:27:12;-2.30;99.90
16136;DHT22;8173;48.354;9.248;2023-03-01T03:29:39;-2.30;99.90
16136;DHT22;8173;48.354;9.248;2023-03-01T03:32:06;-2.30;99.90
16136;DHT22;8173;48.354;9.248;2023-03-01T03:34:32;-2.30;99.90
16136;DHT22;8173;48.354;9.248;2023-03-01T03:37:00;-2.20;99.90
16136;DHT22;8173;48.354;9.248;2023-03-01T03:39:28;-2.20;99.90
16136;DHT22;8173;48.354;9.248;2023-03-01T03:42:00;-2.20;99.90
16136;DHT22;8173;48.354;9.248;2023-03-01T03:44:27;-2.20;99.90
16136;DHT22;8173;48.354;9.248;2023-03-01T03:46:53;-2.20;99.90
16136;DHT22;8173;48.354;9.248;2023-03-01T03:49:20;-2.20;99.90
16136;DHT22;8173;48.354;9.248;2023-03-01T03:51:47;-2.10;99.90
16136;DHT22;8173;48.354;9.248;2023-03-01T03:54:15;-2.20;99.90
16136;DHT22;8173;48.354;9.248;2023-03-01T03:56:42;-2.20;99.90
16136;DHT22;8173;48.354;9.248;2023-03-01T03:59:09;-2.10;99.90
16136;DHT22;8173;48.354;9.248;2023-03-01T04:01:36;-2.10;99.90
16136;DHT22;8173;48.354;9.248;2023-03-01T04:04:03;-2.20;99.90
16136;DHT22;8173;48.354;9.248;2023-03-01T04:06:30;-2.10;99.90
16136;DHT22;8173;48.354;9.248;2023-03-01T04:08:57;-2.10;99.90
16136;DHT22;8173;48.354;9.248;2023-03-01T04:11:27;-2.10;99.90
16136;DHT22;8173;48.354;9.248;2023-03-01T04:13:55;-2.10;99.90
16136;DHT22;8173;48.354;9.248;2023-03-01T04:16:22;-2.20;99.90
16136;DHT22;8173;48.354;9.248;2023-03-01T04:18:50;-2.10;99.90
16136;DHT22;8173;48.354;9.248;2023-03-01T04:21:17;-2.10;99.90
16136;DHT22;8173;48.354;9.248;2023-03-01T04:23:45;-2.10;99.90
16136;DHT22;8173;48.354;9.248;2023-03-01T04:26:12;-2.10;99.90
16136;DHT22;8173;48.354;9.248;2023-03-01T04:28:42;-2.10;99.90
16136;DHT22;8173;48.354;9.248;2023-03-01T04:31:12;-2.10;99.90
16136;DHT22;8173;48.354;9.248;2023-03-01T04:33:42;-2.10;99.90
16136;DHT22;8173;48.354;9.248;2023-03-01T04:36:09;-2.10;99.90
16136;DHT22;8173;48.354;9.248;2023-03-01T04:38:37;-2.10;99.90
16136;DHT22;8173;48.354;9.248;2023-03-01T04:41:04;-2.10;99.90
16136;DHT22;8173;48.354;9.248;2023-03-01T04:43:31;-2.10;99.90
16136;DHT22;8173;48.354;9.248;2023-03-01T04:46:05;-2.10;99.90
16136;DHT22;8173;48.354;9.248;2023-03-01T04:48:34;-2.10;99.90
16136;DHT22;8173;48.354;9.248;2023-03-01T04:51:01;-2.10;99.90
16136;DHT22;8173;48.354;9.248;2023-03-01T04:53:27;-2.00;99.90
16136;DHT22;8173;48.354;9.248;2023-03-01T04:55:54;-1.30;99.90
16136;DHT22;8173;48.354;9.248;2023-03-01T04:58:22;-2.00;99.90
16136;DHT22;8173;48.354;9.248;2023-03-01T05:00:48;-2.00;99.90
16136;DHT22;8173;48.354;9.248;2023-03-01T05:03:16;-2.00;99.90
16136;DHT22;8173;48.354;9.248;2023-03-01T05:05:44;-2.00;99.90
16136;DHT22;8173;48.354;9.248;2023-03-01T05:08:12;-1.90;99.90
16136;DHT22;8173;48.354;9.248;2023-03-01T05:10:43;-1.90;99.90
16136;DHT22;8173;48.354;9.248;2023-03-01T05:13:11;-1.90;99.90
16136;DHT22;8173;48.354;9.248;2023-03-01T05:15:39;-1.90;99.90
16136;DHT22;8173;48.354;9.248;2023-03-01T05:18:05;-1.90;99.90
16136;DHT22;8173;48.354;9.248;2023-03-01T05:20:38;-1.80;99.90
16136;DHT22;8173;48.354;9.248;2023-03-01T05:23:05;-1.80;99.90
16136;DHT22;8173;48.354;9.248;2023-03-01T05:25:33;-1.80;99.90
16136;DHT22;8173;48.354;9.248;2023-03-01T05:28:00;-1.80;99.90
16136;DHT22;8173;48.354;9.248;2023-03-01T05:30:30;-1.80;99.90
16136;DHT22;8173;48.354;9.248;2023-03-01T05:32:58;-1.80;99.90
16136;DHT22;8173;48.354;9.248;2023-03-01T05:35:25;-1.80;99.90
16136;DHT22;8173;48.354;9.248;2023-03-01T05:37:53;-1.70;99.90
16136;DHT22;8173;48.354;9.248;2023-03-01T05:40:22;-1.70;99.90
16136;DHT22;8173;48.354;9.248;2023-03-01T05:42:52;-1.70;99.90
16136;DHT22;8173;48.354;9.248;2023-03-01T05:45:19;-1.70;99.90
16136;DHT22;8173;48.354;9.248;2023-03-01T05:47:47;-1.70;99.90
16136;DHT22;8173;48.354;9.248;2023-03-01T05:50:16;-1.70;99.90
16136;DHT22;8173;48.354;9.248;2023-03-01T05:52:46;-1.70;99.90
16136;DHT22;8173;48.354;9.248;2023-03-01T05:55:15;-1.70;99.90
16136;DHT22;8173;48.354;9.248;2023-03-01T05:57:42;-1.70;99.90
16136;DHT22;8173;48.354;9.248;2023-03-01T06:00:11;-1.70;99.90
16136;DHT22;8173;48.354;9.248;2023-03-01T06:02:38;-1.70;99.90
16136;DHT22;8173;48.354;9.248;2023-03-01T06:05:06;-1.70;99.90
16136;DHT22;8173;48.354;9.248;2023-03-01T06:07:34;-1.70;99.90
16136;DHT22;8173;48.354;9.248;2023-03-01T06:10:01;-1.70;99.90
16136;DHT22;8173;48.354;9.248;2023-03-01T06:12:31;-1.70;99.90
16136;DHT22;8173;48.354;9.248;2023-03-01T06:14:58;-1.70;99.90
16136;DHT22;8173;48.354;9.248;2023-03-01T06:17:25;-1.70;99.90
16136;DHT22;8173;48.354;9.248;2023-03-01T06:19:52;-1.60;99.90
16136;DHT22;8173;48.354;9.248;2023-03-01T06:22:19;-1.60;99.90
16136;DHT22;8173;48.354;9.248;2023-03-01T06:24:45;-1.60;99.90
16136;DHT22;8173;48.354;9.248;2023-03-01T06:27:12;-1.60;99.90
16136;DHT22;8173;48.354;9.248;2023-03-01T06:29:40;-1.50;99.90
16136;DHT22;8173;48.354;9.248;2023-03-01T06:32:07;-1.50;99.90
16136;DHT22;8173;48.354;9.248;2023-03-01T06:34:34;-1.50;99.90
16136;DHT22;8173;48.354;9.248;2023-03-01T06:37:00;-1.50;99.90
16136;DHT22;8173;48.354;9.248;2023-03-01T06:39:30;-1.40;99.90
16136;DHT22;8173;48.354;9.248;2023-03-01T06:41:57;-1.40;99.90
16136;DHT22;8173;48.354;9.248;2023-03-01T06:44:24;-1.40;99.90
16136;DHT22;8173;48.354;9.248;2023-03-01T06:46:52;-1.40;99.90
16136;DHT22;8173;48.354;9.248;2023-03-01T06:49:19;-1.40;99.90
16136;DHT22;8173;48.354;9.248;2023-03-01T06:51:46;-1.40;99.90
16136;DHT22;8173;48.354;9.248;2023-03-01T06:54:13;-1.30;99.90
16136;DHT22;8173;48.354;9.248;2023-03-01T06:56:40;-1.30;99.90
16136;DHT22;8173;48.354;9.248;2023-03-01T06:59:06;-1.30;99.90
16136;DHT22;8173;48.354;9.248;2023-03-01T07:01:33;-1.20;99.90
16136;DHT22;8173;48.354;9.248;2023-03-01T07:04:01;-1.20;99.90
16136;DHT22;8173;48.354;9.248;2023-03-01T07:06:28;-1.20;99.90
16136;DHT22;8173;48.354;9.248;2023-03-01T07:08:54;-1.30;99.90
16136;DHT22;8173;48.354;9.248;2023-03-01T07:11:21;-1.30;99.90
16136;DHT22;8173;48.354;9.248;2023-03-01T07:13:48;-1.20;99.90
16136;DHT22;8173;48.354;9.248;2023-03-01T07:16:15;-1.20;99.90
16136;DHT22;8173;48.354;9.248;2023-03-01T07:18:42;-1.10;99.90
16136;DHT22;8173;48.354;9.248;2023-03-01T07:21:12;-1.10;99.90
16136;DHT22;8173;48.354;9.248;2023-03-01T07:23:39;-0.90;99.90
16136;DHT22;8173;48.354;9.248;2023-03-01T07:26:06;-0.90;99.90
16136;DHT22;8173;48.354;9.248;2023-03-01T07:28:33;-0.80;99.90
16136;DHT22;8173;48.354;9.248;2023-03-01T07:31:02;-0.80;99.90
16136;DHT22;8173;48.354;9.248;2023-03-01T07:33:29;-0.90;99.90
16136;DHT22;8173;48.354;9.248;2023-03-01T07:35:57;-0.70;99.90
16136;DHT22;8173;48.354;9.248;2023-03-01T07:38:26;-0.70;99.90
16136;DHT22;8173;48.354;9.248;2023-03-01T07:40:53;-0.70;99.90
16136;DHT22;8173;48.354;9.248;2023-03-01T07:43:19;-0.60;99.90
16136;DHT22;8173;48.354;9.248;2023-03-01T07:45:46;-0.60;99.90
16136;DHT22;8173;48.354;9.248;2023-03-01T07:48:13;-0.70;99.90
16136;DHT22;8173;48.354;9.248;2023-03-01T07:50:40;-0.70;99.90
16136;DHT22;8173;48.354;9.248;2023-03-01T07:53:06;-0.90;99.90
16136;DHT22;8173;48.354;9.248;2023-03-01T07:55:34;-0.80;99.90
16136;DHT22;8173;48.354;9.248;2023-03-01T07:58:01;-0.90;99.90
16136;DHT22;8173;48.354;9.248;2023-03-01T08:00:28;-0.80;99.90
16136;DHT22;8173;48.354;9.248;2023-03-01T08:02:54;-0.90;99.90
16136;DHT22;8173;48.354;9.248;2023-03-01T08:05:24;-0.80;99.90
16136;DHT22;8173;48.354;9.248;2023-03-01T08:07:51;-0.60;99.90
16136;DHT22;8173;48.354;9.248;2023-03-01T08:10:18;-0.40;99.90
16136;DHT22;8173;48.354;9.248;2023-03-01T08:12:47;-0.40;99.90
16136;DHT22;8173;48.354;9.248;2023-03-01T08:15:13;-0.40;99.90
16136;DHT22;8173;48.354;9.248;2023-03-01T08:17:40;-0.70;99.90
16136;DHT22;8173;48.354;9.248;2023-03-01T08:20:08;-0.60;99.90
16136;DHT22;8173;48.354;9.248;2023-03-01T08:22:37;-0.50;99.90
16136;DHT22;8173;48.354;9.248;2023-03-01T08:25:05;-0.50;99.90
16136;DHT22;8173;48.354;9.248;2023-03-01T08:27:31;-0.20;99.90
16136;DHT22;8173;48.354;9.248;2023-03-01T08:29:59;-0.20;99.90
16136;DHT22;8173;48.354;9.248;2023-03-01T08:32:26;-0.30;99.90
16136;DHT22;8173;48.354;9.248;2023-03-01T08:34:53;-0.10;99.90
16136;DHT22;8173;48.354;9.248;2023-03-01T08:37:19;0.10;99.90
16136;DHT22;8173;48.354;9.248;2023-03-01T08:39:46;0.20;99.90
16136;DHT22;8173;48.354;9.248;2023-03-01T08:42:13;0.40;99.90
16136;DHT22;8173;48.354;9.248;2023-03-01T08:44:39;0.40;99.90
16136;DHT22;8173;48.354;9.248;2023-03-01T08:47:07;-0.20;99.90
16136;DHT22;8173;48.354;9.248;2023-03-01T08:49:34;-0.50;99.90
16136;DHT22;8173;48.354;9.248;2023-03-01T08:52:02;-0.60;99.90
16136;DHT22;8173;48.354;9.248;2023-03-01T08:54:29;-0.60;99.90
16136;DHT22;8173;48.354;9.248;2023-03-01T08:56:55;-0.50;99.90
16136;DHT22;8173;48.354;9.248;2023-03-01T08:59:25;-0.30;99.90
16136;DHT22;8173;48.354;9.248;2023-03-01T09:01:52;-0.10;99.90
16136;DHT22;8173;48.354;9.248;2023-03-01T09:04:20;0.10;99.90
16136;DHT22;8173;48.354;9.248;2023-03-01T09:09:15;0.10;99.90
16136;DHT22;8173;48.354;9.248;2023-03-01T09:11:42;0.10;99.90
16136;DHT22;8173;48.354;9.248;2023-03-01T09:14:11;0.30;99.90
16136;DHT22;8173;48.354;9.248;2023-03-01T09:16:38;0.20;99.90
16136;DHT22;8173;48.354;9.248;2023-03-01T09:19:05;0.40;99.90
16136;DHT22;8173;48.354;9.248;2023-03-01T09:21:33;0.70;99.90
16136;DHT22;8173;48.354;9.248;2023-03-01T09:24:00;0.70;99.90
16136;DHT22;8173;48.354;9.248;2023-03-01T09:26:26;0.70;99.90
16136;DHT22;8173;48.354;9.248;2023-03-01T09:28:54;0.60;99.90
16136;DHT22;8173;48.354;9.248;2023-03-01T09:31:23;0.60;99.90
16136;DHT22;8173;48.354;9.248;2023-03-01T09:33:51;0.70;99.90
16136;DHT22;8173;48.354;9.248;2023-03-01T09:36:19;0.90;99.90
16136;DHT22;8173;48.354;9.248;2023-03-01T09:38:48;0.70;99.90
16136;DHT22;8173;48.354;9.248;2023-03-01T09:44:12;1.20;99.90
16136;DHT22;8173;48.354;9.248;2023-03-01T09:46:42;1.30;99.90
16136;DHT22;8173;48.354;9.248;2023-03-01T09:49:13;1.30;99.90
16136;DHT22;8173;48.354;9.248;2023-03-01T09:51:42;1.40;99.90
16136;DHT22;8173;48.354;9.248;2023-03-01T09:54:11;1.80;99.90
16136;DHT22;8173;48.354;9.248;2023-03-01T09:56:41;2.30;99.90
16136;DHT22;8173;48.354;9.248;2023-03-01T09:59:18;2.30;99.90
16136;DHT22;8173;48.354;9.248;2023-03-01T10:01:53;2.40;99.90
16136;DHT22;8173;48.354;9.248;2023-03-01T10:04:36;2.30;99.90
16136;DHT22;8173;48.354;9.248;2023-03-01T10:07:17;2.30;99.90
16136;DHT22;8173;48.354;9.248;2023-03-01T10:09:48;2.60;99.90
16136;DHT22;8173;48.354;9.248;2023-03-01T10:12:17;2.10;99.90
16136;DHT22;8173;48.354;9.248;2023-03-01T10:14:53;1.80;99.90
16136;DHT22;8173;48.354;9.248;2023-03-01T10:17:27;1.80;99.90
16136;DHT22;8173;48.354;9.248;2023-03-01T10:20:13;1.30;99.90
16136;DHT22;8173;48.354;9.248;2023-03-01T10:22:40;1.20;99.90
16136;DHT22;8173;48.354;9.248;2023-03-01T10:25:13;1.00;99.90
16136;DHT22;8173;48.354;9.248;2023-03-01T10:27:46;1.10;99.90
16136;DHT22;8173;48.354;9.248;2023-03-01T10:30:19;0.90;99.90
16136;DHT22;8173;48.354;9.248;2023-03-01T10:32:49;0.90;99.90
16136;DHT22;8173;48.354;9.248;2023-03-01T10:35:19;1.00;99.90
16136;DHT22;8173;48.354;9.248;2023-03-01T10:37:57;1.20;99.90
16136;DHT22;8173;48.354;9.248;2023-03-01T10:40:25;1.30;99.90
16136;DHT22;8173;48.354;9.248;2023-03-01T10:42:52;1.00;99.90
16136;DHT22;8173;48.354;9.248;2023-03-01T10:45:31;0.90;99.90
16136;DHT22;8173;48.354;9.248;2023-03-01T10:48:10;1.00;99.90
16136;DHT22;8173;48.354;9.248;2023-03-01T10:50:38;1.00;99.90
16136;DHT22;8173;48.354;9.248;2023-03-01T10:53:20;1.10;99.90
16136;DHT22;8173;48.354;9.248;2023-03-01T10:55:57;1.10;99.90
16136;DHT22;8173;48.354;9.248;2023-03-01T10:58:25;1.20;99.90
16136;DHT22;8173;48.354;9.248;2023-03-01T11:00:53;1.30;99.90
16136;DHT22;8173;48.354;9.248;2023-03-01T11:03:23;1.50;99.90
16136;DHT22;8173;48.354;9.248;2023-03-01T11:05:53;1.50;99.90
16136;DHT22;8173;48.354;9.248;2023-03-01T11:08:35;1.30;99.90
16136;DHT22;8173;48.354;9.248;2023-03-01T11:11:25;1.50;99.90
16136;DHT22;8173;48.354;9.248;2023-03-01T11:13:58;1.20;99.90
16136;DHT22;8173;48.354;9.248;2023-03-01T11:16:34;1.40;99.90
16136;DHT22;8173;48.354;9.248;2023-03-01T11:19:15;2.10;99.90
16136;DHT22;8173;48.354;9.248;2023-03-01T11:21:47;3.00;99.90
16136;DHT22;8173;48.354;9.248;2023-03-01T11:24:18;3.30;99.90
16136;DHT22;8173;48.354;9.248;2023-03-01T11:26:51;3.60;99.90
16136;DHT22;8173;48.354;9.248;2023-03-01T11:29:27;4.30;99.90
16136;DHT22;8173;48.354;9.248;2023-03-01T11:31:59;4.50;99.90
16136;DHT22;8173;48.354;9.248;2023-03-01T11:34:38;4.80;99.90
16136;DHT22;8173;48.354;9.248;2023-03-01T11:37:15;4.90;99.90
16136;DHT22;8173;48.354;9.248;2023-03-01T11:39:47;5.20;99.90
16136;DHT22;8173;48.354;9.248;2023-03-01T11:42:19;5.40;99.90
16136;DHT22;8173;48.354;9.248;2023-03-01T11:44:49;5.30;99.90
16136;DHT22;8173;48.354;9.248;2023-03-01T11:47:27;5.50;99.90
16136;DHT22;8173;48.354;9.248;2023-03-01T11:50:15;5.20;99.90
16136;DHT22;8173;48.354;9.248;2023-03-01T11:52:50;5.00;99.90
16136;DHT22;8173;48.354;9.248;2023-03-01T11:55:29;5.20;99.90
16136;DHT22;8173;48.354;9.248;2023-03-01T11:58:21;5.80;99.90
16136;DHT22;8173;48.354;9.248;2023-03-01T12:06:47;6.50;99.90
16136;DHT22;8173;48.354;9.248;2023-03-01T12:09:29;6.60;99.90
16136;DHT22;8173;48.354;9.248;2023-03-01T12:12:27;6.70;99.90
16136;DHT22;8173;48.354;9.248;2023-03-01T12:15:11;7.30;99.90
16136;DHT22;8173;48.354;9.248;2023-03-01T12:17:56;7.60;99.90
16136;DHT22;8173;48.354;9.248;2023-03-01T12:20:29;8.20;99.90
16136;DHT22;8173;48.354;9.248;2023-03-01T12:23:14;7.40;99.90
16136;DHT22;8173;48.354;9.248;2023-03-01T12:25:48;7.20;99.90
16136;DHT22;8173;48.354;9.248;2023-03-01T12:28:44;6.60;99.90
16136;DHT22;8173;48.354;9.248;2023-03-01T12:31:44;6.80;99.90
16136;DHT22;8173;48.354;9.248;2023-03-01T12:34:26;6.70;99.90
16136;DHT22;8173;48.354;9.248;2023-03-01T12:37:09;6.80;99.90
16136;DHT22;8173;48.354;9.248;2023-03-01T12:39:47;6.70;99.90
16136;DHT22;8173;48.354;9.248;2023-03-01T12:42:24;6.90;99.90
16136;DHT22;8173;48.354;9.248;2023-03-01T12:45:09;7.00;99.90
16136;DHT22;8173;48.354;9.248;2023-03-01T12:47:58;7.20;99.90
16136;DHT22;8173;48.354;9.248;2023-03-01T12:50:35;7.80;99.90
16136;DHT22;8173;48.354;9.248;2023-03-01T12:53:04;8.30;99.90
16136;DHT22;8173;48.354;9.248;2023-03-01T12:55:33;8.60;99.90
16136;DHT22;8173;48.354;9.248;2023-03-01T12:58:06;8.50;99.90
16136;DHT22;8173;48.354;9.248;2023-03-01T13:00:39;8.20;99.90
16136;DHT22;8173;48.354;9.248;2023-03-01T13:03:19;8.10;99.90
16136;DHT22;8173;48.354;9.248;2023-03-01T13:06:02;8.00;99.90
16136;DHT22;8173;48.354;9.248;2023-03-01T13:08:37;8.00;99.90
16136;DHT22;8173;48.354;9.248;2023-03-01T13:11:14;8.10;99.90
16136;DHT22;8173;48.354;9.248;2023-03-01T13:13:42;8.30;99.90
16136;DHT22;8173;48.354;9.248;2023-03-01T13:16:39;8.40;99.90
16136;DHT22;8173;48.354;9.248;2023-03-01T13:19:13;8.30;99.90
16136;DHT22;8173;48.354;9.248;2023-03-01T13:21:41;8.30;99.90
16136;DHT22;8173;48.354;9.248;2023-03-01T13:24:24;8.50;99.90
16136;DHT22;8173;48.354;9.248;2023-03-01T13:27:20;8.80;99.90
16136;DHT22;8173;48.354;9.248;2023-03-01T13:29:51;8.90;99.90
16136;DHT22;8173;48.354;9.248;2023-03-01T13:32:22;8.90;99.90
16136;DHT22;8173;48.354;9.248;2023-03-01T13:34:53;8.70;99.90
16136;DHT22;8173;48.354;9.248;2023-03-01T13:37:32;8.10;99.90
16136;DHT22;8173;48.354;9.248;2023-03-01T13:42:49;8.20;99.90
16136;DHT22;8173;48.354;9.248;2023-03-01T13:45:20;7.90;99.90
16136;DHT22;8173;48.354;9.248;2023-03-01T13:47:51;8.20;99.90
16136;DHT22;8173;48.354;9.248;2023-03-01T13:50:23;8.40;99.90
16136;DHT22;8173;48.354;9.248;2023-03-01T13:52:53;8.50;99.90
16136;DHT22;8173;48.354;9.248;2023-03-01T13:55:24;8.60;99.90
16136;DHT22;8173;48.354;9.248;2023-03-01T13:57:56;8.00;99.90
16136;DHT22;8173;48.354;9.248;2023-03-01T14:00:32;8.00;99.90
16136;DHT22;8173;48.354;9.248;2023-03-01T14:03:10;7.80;99.90
16136;DHT22;8173;48.354;9.248;2023-03-01T14:05:38;8.00;99.90
16136;DHT22;8173;48.354;9.248;2023-03-01T14:08:19;8.40;99.90
16136;DHT22;8173;48.354;9.248;2023-03-01T14:10:54;8.00;99.90
16136;DHT22;8173;48.354;9.248;2023-03-01T14:13:35;8.20;99.90
16136;DHT22;8173;48.354;9.248;2023-03-01T14:16:17;8.00;99.90
16136;DHT22;8173;48.354;9.248;2023-03-01T14:18:53;7.90;99.90
16136;DHT22;8173;48.354;9.248;2023-03-01T14:21:26;7.30;99.90
16136;DHT22;8173;48.354;9.248;2023-03-01T14:23:52;6.60;99.90
16136;DHT22;8173;48.354;9.248;2023-03-01T14:26:21;6.50;99.90
16136;DHT22;8173;48.354;9.248;2023-03-01T14:28:48;6.60;99.90
16136;DHT22;8173;48.354;9.248;2023-03-01T14:31:45;6.80;99.90
16136;DHT22;8173;48.354;9.248;2023-03-01T14:34:19;7.10;99.90
16136;DHT22;8173;48.354;9.248;2023-03-01T14:36:48;7.30;99.90
16136;DHT22;8173;48.354;9.248;2023-03-01T14:39:19;7.30;99.90
16136;DHT22;8173;48.354;9.248;2023-03-01T14:41:46;7.30;99.90
16136;DHT22;8173;48.354;9.248;2023-03-01T14:44:16;6.90;99.90
16136;DHT22;8173;48.354;9.248;2023-03-01T14:46:45;6.30;99.90
16136;DHT22;8173;48.354;9.248;2023-03-01T14:49:14;5.80;99.90
16136;DHT22;8173;48.354;9.248;2023-03-01T14:51:50;5.50;99.90
16136;DHT22;8173;48.354;9.248;2023-03-01T14:54:24;5.30;99.90
16136;DHT22;8173;48.354;9.248;2023-03-01T14:56:53;5.80;99.90
16136;DHT22;8173;48.354;9.248;2023-03-01T14:59:22;5.90;99.90
16136;DHT22;8173;48.354;9.248;2023-03-01T15:01:50;5.80;99.90
16136;DHT22;8173;48.354;9.248;2023-03-01T15:04:18;5.50;99.90
16136;DHT22;8173;48.354;9.248;2023-03-01T15:09:15;5.30;99.90
16136;DHT22;8173;48.354;9.248;2023-03-01T15:11:43;4.90;99.90
16136;DHT22;8173;48.354;9.248;2023-03-01T15:14:27;4.60;99.90
16136;DHT22;8173;48.354;9.248;2023-03-01T15:16:54;4.60;99.90
16136;DHT22;8173;48.354;9.248;2023-03-01T15:19:23;4.80;99.90
16136;DHT22;8173;48.354;9.248;2023-03-01T15:21:53;4.90;99.90
16136;DHT22;8173;48.354;9.248;2023-03-01T15:24:24;4.80;99.90
16136;DHT22;8173;48.354;9.248;2023-03-01T15:26:55;4.70;99.90
16136;DHT22;8173;48.354;9.248;2023-03-01T15:29:24;4.60;99.90
16136;DHT22;8173;48.354;9.248;2023-03-01T15:31:57;4.60;99.90
16136;DHT22;8173;48.354;9.248;2023-03-01T15:34:25;4.60;99.90
16136;DHT22;8173;48.354;9.248;2023-03-01T15:36:53;4.60;99.90
16136;DHT22;8173;48.354;9.248;2023-03-01T15:39:31;4.70;99.90
16136;DHT22;8173;48.354;9.248;2023-03-01T15:41:58;4.50;99.90
16136;DHT22;8173;48.354;9.248;2023-03-01T15:44:27;4.40;99.90
16136;DHT22;8173;48.354;9.248;2023-03-01T15:46:54;4.40;99.90
16136;DHT22;8173;48.354;9.248;2023-03-01T15:49:32;4.30;99.90
16136;DHT22;8173;48.354;9.248;2023-03-01T15:51:59;4.20;99.90
16136;DHT22;8173;48.354;9.248;2023-03-01T15:54:28;4.00;99.90
16136;DHT22;8173;48.354;9.248;2023-03-01T15:56:55;3.80;99.90
16136;DHT22;8173;48.354;9.248;2023-03-01T15:59:22;3.80;99.90
16136;DHT22;8173;48.354;9.248;2023-03-01T16:01:49;3.70;99.90
16136;DHT22;8173;48.354;9.248;2023-03-01T16:04:18;3.70;99.90
16136;DHT22;8173;48.354;9.248;2023-03-01T16:06:48;3.70;99.90
16136;DHT22;8173;48.354;9.248;2023-03-01T16:09:20;3.70;99.90
16136;DHT22;8173;48.354;9.248;2023-03-01T16:11:50;3.70;99.90
16136;DHT22;8173;48.354;9.248;2023-03-01T16:14:17;3.60;99.90
16136;DHT22;8173;48.354;9.248;2023-03-01T16:16:44;3.50;99.90
16136;DHT22;8173;48.354;9.248;2023-03-01T16:19:11;3.40;99.90
16136;DHT22;8173;48.354;9.248;2023-03-01T16:21:38;3.40;99.90
16136;DHT22;8173;48.354;9.248;2023-03-01T16:24:05;3.30;99.90
16136;DHT22;8173;48.354;9.248;2023-03-01T16:26:32;3.20;99.90
16136;DHT22;8173;48.354;9.248;2023-03-01T16:29:00;3.20;99.90